createdAt,value
2022-09-10T00:02:14.635Z,84.62
2022-09-10T00:04:41.924Z,84.48
2022-09-10T00:07:09.199Z,83.78
2022-09-10T00:09:37.624Z,83.08
2022-09-10T00:12:05.414Z,82.54
2022-09-10T00:14:32.630Z,82.13
2022-09-10T00:17:00.096Z,80.75
2022-09-10T00:19:30.113Z,80.65
2022-09-10T00:21:57.546Z,79.64
2022-09-10T00:24:24.988Z,79.78
2022-09-10T00:26:52.170Z,78.90
2022-09-10T00:29:21.567Z,78.86
2022-09-10T00:31:49.051Z,80.27
2022-09-10T00:34:16.252Z,82.34
2022-09-10T00:36:45.111Z,83.84
2022-09-10T00:39:14.806Z,84.34
2022-09-10T00:41:44.070Z,83.14
2022-09-10T00:44:48.717Z,82.87
2022-09-10T00:47:21.977Z,83.91
2022-09-10T00:49:52.751Z,84.26
2022-09-10T00:52:22.145Z,84.11
2022-09-10T00:54:50.021Z,84.28
2022-09-10T00:57:20.329Z,84.48
2022-09-10T00:59:53.266Z,84.63
2022-09-10T01:02:20.682Z,84.62
2022-09-10T01:04:48.658Z,84.42
2022-09-10T01:07:16.455Z,85.13
2022-09-10T01:09:45.297Z,85.62
2022-09-10T01:12:28.742Z,85.54
2022-09-10T01:15:10.144Z,85.46
2022-09-10T01:17:53.351Z,85.54
2022-09-10T01:20:46.191Z,85.50
2022-09-10T01:23:36.349Z,85.45
2022-09-10T01:26:18.700Z,85.27
2022-09-10T01:28:54.979Z,84.76
2022-09-10T01:31:30.101Z,84.74
2022-09-10T01:34:02.910Z,84.18
2022-09-10T01:36:34.448Z,83.84
2022-09-10T01:39:02.535Z,83.34
2022-09-10T01:41:30.157Z,82.95
2022-09-10T01:44:07.302Z,81.79
2022-09-10T01:46:45.099Z,81.56
2022-09-10T01:49:26.028Z,81.83
2022-09-10T01:52:11.911Z,81.98
2022-09-10T01:54:52.373Z,81.71
2022-09-10T01:57:30.319Z,81.37
2022-09-10T02:00:02.602Z,80.16
2022-09-10T02:02:35.515Z,80.92
2022-09-10T02:05:05.266Z,81.30
2022-09-10T02:07:36.266Z,82.45
2022-09-10T02:10:06.371Z,83.00
2022-09-10T02:12:34.909Z,83.20
2022-09-10T02:15:05.393Z,83.05
2022-09-10T02:17:35.802Z,83.06
2022-09-10T02:20:06.089Z,83.06
2022-09-10T02:22:35.733Z,82.76
2022-09-10T02:25:03.835Z,81.43
2022-09-10T02:27:31.392Z,81.75
2022-09-10T02:29:59.133Z,81.71
2022-09-10T02:32:28.146Z,82.04
2022-09-10T02:34:55.393Z,82.60
2022-09-10T02:37:23.183Z,82.75
2022-09-10T02:39:50.380Z,83.14
2022-09-10T02:42:17.592Z,83.27
2022-09-10T02:44:45.188Z,83.56
2022-09-10T02:47:12.403Z,84.00
2022-09-10T02:49:46.221Z,83.55
2022-09-10T02:52:14.038Z,83.40
2022-09-10T02:54:41.329Z,83.23
2022-09-10T02:57:08.649Z,83.24
2022-09-10T02:59:36.439Z,84.03
2022-09-10T03:02:03.859Z,84.04
2022-09-10T03:04:31.109Z,83.75
2022-09-10T03:07:00.101Z,83.19
2022-09-10T03:09:27.455Z,82.29
2022-09-10T03:11:54.722Z,82.45
2022-09-10T03:14:22.570Z,82.49
2022-09-10T03:16:50.512Z,82.13
2022-09-10T03:19:18.404Z,82.75
2022-09-10T03:21:45.950Z,83.55
2022-09-10T03:24:15.587Z,84.35
2022-09-10T03:26:42.935Z,84.63
2022-09-10T03:29:11.531Z,84.97
2022-09-10T03:31:38.706Z,84.48
2022-09-10T03:34:06.201Z,84.12
2022-09-10T03:36:34.013Z,83.04
2022-09-10T03:39:01.298Z,82.46
2022-09-10T03:41:30.241Z,82.52
2022-09-10T03:43:58.221Z,81.33
2022-09-10T03:46:25.524Z,81.13
2022-09-10T03:48:55.761Z,80.43
2022-09-10T03:51:23.292Z,80.77
2022-09-10T03:53:50.542Z,80.53
2022-09-10T03:56:17.996Z,81.10
2022-09-10T03:58:48.289Z,81.57
2022-09-10T04:01:15.612Z,81.28
2022-09-10T04:03:42.844Z,80.74
2022-09-10T04:06:10.738Z,81.23
2022-09-10T04:08:38.242Z,81.17
2022-09-10T04:11:08.477Z,80.45
2022-09-10T04:13:36.508Z,80.11
2022-09-10T04:16:05.614Z,80.44
2022-09-10T04:18:32.923Z,81.43
2022-09-10T04:21:01.233Z,81.47
2022-09-10T04:23:28.742Z,81.49
2022-09-10T04:25:56.085Z,80.97
2022-09-10T04:28:23.778Z,79.94
2022-09-10T04:30:51.191Z,79.67
2022-09-10T04:33:19.953Z,80.35
2022-09-10T04:35:47.571Z,80.92
2022-09-10T04:38:14.830Z,80.85
2022-09-10T04:40:44.245Z,80.64
2022-09-10T04:43:11.669Z,81.02
2022-09-10T04:45:38.903Z,81.25
2022-09-10T04:48:07.167Z,80.56
2022-09-10T04:50:50.020Z,80.53
2022-09-10T04:53:26.973Z,80.30
2022-09-10T04:55:55.553Z,80.05
2022-09-10T04:58:23.142Z,81.04
2022-09-10T05:00:50.285Z,81.45
2022-09-10T05:03:17.923Z,81.59
2022-09-10T05:05:46.562Z,81.98
2022-09-10T05:08:14.079Z,82.35
2022-09-10T05:10:42.091Z,82.38
2022-09-10T05:13:09.462Z,81.88
2022-09-10T05:15:36.605Z,81.38
2022-09-10T05:18:04.349Z,81.10
2022-09-10T05:20:34.608Z,81.46
2022-09-10T05:23:03.727Z,81.99
2022-09-10T05:25:31.653Z,80.66
2022-09-10T05:27:58.941Z,80.09
2022-09-10T05:30:26.189Z,79.95
2022-09-10T05:32:53.687Z,80.61
2022-09-10T05:35:21.065Z,80.10
2022-09-10T05:37:48.548Z,79.38
2022-09-10T05:40:17.656Z,78.83
2022-09-10T05:42:44.971Z,79.41
2022-09-10T05:45:12.214Z,79.06
2022-09-10T05:47:40.363Z,78.98
2022-09-10T05:50:08.291Z,78.84
2022-09-10T05:52:35.431Z,79.02
2022-09-10T05:55:03.458Z,78.72
2022-09-10T05:57:32.217Z,78.71
2022-09-10T05:59:59.440Z,79.54
2022-09-10T06:02:27.189Z,78.55
2022-09-10T06:04:54.373Z,78.87
2022-09-10T06:07:21.645Z,78.10
2022-09-10T06:09:49.221Z,78.76
2022-09-10T06:12:16.341Z,79.15
2022-09-10T06:14:45.020Z,78.27
2022-09-10T06:17:12.876Z,78.13
2022-09-10T06:19:40.299Z,78.44
2022-09-10T06:22:07.688Z,75.13
2022-09-10T06:24:35.375Z,75.63
2022-09-10T06:27:03.025Z,74.52
2022-09-10T06:29:30.442Z,75.29
2022-09-10T06:31:59.533Z,71.54
2022-09-10T06:34:26.923Z,73.11
2022-09-10T06:36:54.348Z,72.52
2022-09-10T06:39:22.570Z,72.56
2022-09-10T06:41:50.220Z,72.24
2022-09-10T06:44:17.586Z,69.22
2022-09-10T06:49:33.880Z,68.15
2022-09-10T06:52:01.823Z,68.73
2022-09-10T06:54:29.339Z,69.90
2022-09-10T06:56:56.949Z,68.62
2022-09-10T06:59:24.880Z,65.83
2022-09-10T07:01:52.258Z,65.57
2022-09-10T07:04:19.675Z,65.74
2022-09-10T07:06:49.042Z,64.60
2022-09-10T07:09:16.537Z,63.01
2022-09-10T07:11:43.931Z,63.85
2022-09-10T07:14:12.378Z,65.26
2022-09-10T07:16:40.493Z,65.26
2022-09-10T07:19:08.051Z,62.22
2022-09-10T07:21:35.899Z,61.46
2022-09-10T07:24:05.650Z,61.64
2022-09-10T07:26:33.092Z,60.45
2022-09-10T07:29:00.629Z,58.69
2022-09-10T07:31:29.561Z,60.34
2022-09-10T07:33:57.436Z,58.83
2022-09-10T07:36:25.528Z,58.98
2022-09-10T07:38:54.194Z,59.96
2022-09-10T07:41:24.798Z,58.22
2022-09-10T07:43:54.099Z,58.98
2022-09-10T07:46:26.064Z,59.68
2022-09-10T07:48:55.242Z,59.74
2022-09-10T07:51:25.127Z,58.84
2022-09-10T07:53:53.420Z,57.57
2022-09-10T07:56:21.316Z,58.93
2022-09-10T07:58:50.591Z,59.52
2022-09-10T08:01:17.992Z,54.55
2022-09-10T08:03:46.108Z,56.31
2022-09-10T08:06:13.872Z,56.65
2022-09-10T08:08:42.420Z,55.74
2022-09-10T08:11:12.254Z,56.13
2022-09-10T08:13:39.849Z,54.62
2022-09-10T08:16:10.492Z,56.17
2022-09-10T08:18:38.379Z,55.24
2022-09-10T08:21:07.265Z,55.84
2022-09-10T08:23:35.062Z,55.51
2022-09-10T08:26:03.191Z,53.68
2022-09-10T08:28:30.485Z,54.95
2022-09-10T08:30:59.864Z,53.75
2022-09-10T08:33:29.700Z,55.20
2022-09-10T08:36:00.081Z,53.68
2022-09-10T08:38:31.590Z,52.66
2022-09-10T08:41:01.152Z,53.15
2022-09-10T08:43:35.115Z,52.79
2022-09-10T08:46:11.363Z,54.00
2022-09-10T08:48:40.588Z,55.28
2022-09-10T08:51:13.863Z,56.45
2022-09-10T08:53:47.368Z,57.43
2022-09-10T08:56:18.416Z,56.64
2022-09-10T08:58:51.362Z,55.39
2022-09-10T09:01:29.481Z,55.45
2022-09-10T09:04:06.024Z,54.56
2022-09-10T09:06:45.460Z,55.17
2022-09-10T09:09:15.864Z,52.38
2022-09-10T09:11:54.910Z,54.95
2022-09-10T09:14:34.772Z,52.59
2022-09-10T09:17:23.940Z,53.53
2022-09-10T09:20:03.360Z,51.71
2022-09-10T09:22:40.249Z,52.18
2022-09-10T09:25:18.639Z,51.82
2022-09-10T09:27:47.352Z,51.61
2022-09-10T09:30:19.674Z,49.99
2022-09-10T09:32:47.537Z,49.79
2022-09-10T09:35:25.876Z,50.06
2022-09-10T09:38:03.491Z,48.70
2022-09-10T09:40:39.230Z,50.17
2022-09-10T09:43:17.071Z,51.20
2022-09-10T09:45:44.378Z,52.04
2022-09-10T09:48:14.011Z,50.05
2022-09-10T09:50:45.862Z,49.91
2022-09-10T09:53:19.152Z,48.93
2022-09-10T09:55:49.741Z,50.18
2022-09-10T09:58:34.574Z,49.84
2022-09-10T10:01:21.150Z,49.24
2022-09-10T10:03:52.328Z,47.78
2022-09-10T10:06:23.381Z,49.44
2022-09-10T10:08:58.066Z,48.50
2022-09-10T10:11:42.260Z,49.89
2022-09-10T10:14:35.589Z,49.94
2022-09-10T10:17:05.239Z,48.65
2022-09-10T10:19:35.040Z,49.81
2022-09-10T10:22:21.778Z,47.10
2022-09-10T10:24:50.920Z,47.06
2022-09-10T10:27:23.975Z,45.30
2022-09-10T10:29:54.105Z,47.11
2022-09-10T10:32:27.719Z,47.31
2022-09-10T10:35:07.355Z,47.99
2022-09-10T10:37:44.250Z,47.19
2022-09-10T10:40:23.439Z,46.67
2022-09-10T10:42:57.496Z,46.34
2022-09-10T10:45:35.835Z,45.89
2022-09-10T10:48:04.292Z,46.46
2022-09-10T10:50:42.982Z,46.68
2022-09-10T10:53:23.023Z,47.45
2022-09-10T10:55:59.847Z,44.68
2022-09-10T10:58:42.712Z,45.74
2022-09-10T11:01:19.912Z,45.10
2022-09-10T11:06:45.004Z,45.05
2022-09-10T11:09:23.339Z,42.65
2022-09-10T11:11:58.369Z,45.04
2022-09-10T11:14:31.366Z,44.11
2022-09-10T11:17:05.874Z,46.44
2022-09-10T11:19:40.189Z,44.74
2022-09-10T11:22:14.545Z,44.40
2022-09-10T11:24:49.275Z,44.28
2022-09-10T11:27:22.542Z,43.51
2022-09-10T11:29:57.029Z,44.50
2022-09-10T11:32:30.739Z,44.52
2022-09-10T11:35:06.126Z,43.12
2022-09-10T11:37:47.306Z,43.93
2022-09-10T11:40:23.350Z,45.46
2022-09-10T11:42:55.484Z,43.58
2022-09-10T11:45:29.612Z,41.24
2022-09-10T11:48:02.068Z,40.53
2022-09-10T11:50:37.714Z,42.36
2022-09-10T11:53:05.325Z,42.13
2022-09-10T11:55:47.950Z,40.42
2022-09-10T11:58:24.650Z,43.41
2022-09-10T12:01:00.388Z,41.74
2022-09-10T12:04:02.288Z,40.80
2022-09-10T12:06:36.983Z,40.45
2022-09-10T12:09:14.779Z,42.06
2022-09-10T12:11:52.019Z,44.43
2022-09-10T12:14:20.173Z,44.18
2022-09-10T12:16:52.213Z,45.31
2022-09-10T12:19:27.542Z,46.37
2022-09-10T12:22:00.264Z,46.78
2022-09-10T12:24:30.359Z,46.54
2022-09-10T12:27:01.768Z,47.75
2022-09-10T12:29:32.572Z,47.26
2022-09-10T12:32:28.053Z,48.93
2022-09-10T12:35:46.899Z,47.68
2022-09-10T12:38:48.606Z,48.83
2022-09-10T12:41:52.860Z,47.54
2022-09-10T12:44:53.316Z,48.18
2022-09-10T12:47:48.660Z,50.73
2022-09-10T12:50:39.365Z,49.40
2022-09-10T12:53:36.182Z,49.71
2022-09-10T12:56:21.713Z,48.17
2022-09-10T12:59:02.697Z,50.97
2022-09-10T13:01:40.749Z,49.85
2022-09-10T13:04:19.445Z,51.38
2022-09-10T13:06:47.867Z,51.38
2022-09-10T13:09:18.899Z,50.32
2022-09-10T13:11:49.780Z,50.84
2022-09-10T13:14:21.035Z,49.62
2022-09-10T13:16:49.935Z,52.31
2022-09-10T13:19:49.347Z,50.46
2022-09-10T13:23:02.015Z,51.80
2022-09-10T13:25:47.970Z,54.05
2022-09-10T13:28:52.659Z,53.85
2022-09-10T13:31:26.262Z,51.86
2022-09-10T13:34:29.261Z,53.49
2022-09-10T13:37:20.015Z,52.37
2022-09-10T13:40:19.621Z,51.53
2022-09-10T13:43:08.588Z,51.92
2022-09-10T13:45:39.913Z,51.46
2022-09-10T13:48:13.628Z,51.86
2022-09-10T13:50:49.523Z,49.69
2022-09-10T13:53:20.087Z,49.46
2022-09-10T13:55:55.171Z,50.25
2022-09-10T13:58:25.396Z,48.37
2022-09-10T14:00:56.801Z,48.10
2022-09-10T14:03:31.329Z,46.72
2022-09-10T14:06:00.766Z,47.65
2022-09-10T14:08:33.214Z,49.58
2022-09-10T14:11:05.573Z,50.65
2022-09-10T14:13:38.254Z,47.85
2022-09-10T14:16:10.526Z,46.96
2022-09-10T14:18:44.830Z,47.08
2022-09-10T14:21:14.276Z,47.07
2022-09-10T14:23:48.509Z,47.70
2022-09-10T14:26:18.412Z,47.46
2022-09-10T14:28:56.869Z,48.71
2022-09-10T14:31:36.554Z,48.44
2022-09-10T14:34:31.624Z,49.92
2022-09-10T14:36:59.967Z,49.97
2022-09-10T14:39:29.379Z,49.22
2022-09-10T14:42:23.020Z,47.04
2022-09-10T14:44:50.971Z,49.21
2022-09-10T14:47:27.871Z,48.14
2022-09-10T14:50:26.452Z,46.34
2022-09-10T14:52:53.670Z,48.03
2022-09-10T14:55:24.545Z,48.62
2022-09-10T14:57:52.703Z,49.71
2022-09-10T15:00:20.130Z,50.92
2022-09-10T15:02:47.898Z,51.46
2022-09-10T15:05:15.710Z,51.63
2022-09-10T15:07:43.697Z,51.06
2022-09-10T15:10:12.223Z,51.68
2022-09-10T15:12:43.450Z,52.70
2022-09-10T15:15:17.034Z,54.37
2022-09-10T15:17:45.179Z,54.53
2022-09-10T15:20:13.889Z,54.88
2022-09-10T15:22:41.226Z,55.45
2022-09-10T15:25:22.355Z,56.94
2022-09-10T15:27:51.011Z,56.96
2022-09-10T15:30:18.562Z,57.06
2022-09-10T15:32:46.083Z,56.49
2022-09-10T15:35:13.420Z,56.26
2022-09-10T15:37:41.292Z,56.45
2022-09-10T15:40:09.485Z,56.37
2022-09-10T15:42:36.962Z,58.44
2022-09-10T15:45:07.380Z,57.87
2022-09-10T15:47:34.721Z,57.29
2022-09-10T15:50:02.225Z,57.71
2022-09-10T15:52:29.964Z,57.64
2022-09-10T15:54:57.267Z,57.77
2022-09-10T15:57:24.529Z,56.32
2022-09-10T15:59:52.231Z,57.17
2022-09-10T16:02:21.022Z,56.30
2022-09-10T16:04:48.294Z,56.88
2022-09-10T16:07:15.907Z,57.94
2022-09-10T16:09:43.247Z,57.98
2022-09-10T16:12:10.742Z,58.09
2022-09-10T16:14:38.560Z,58.28
2022-09-10T16:17:05.766Z,59.62
2022-09-10T16:19:34.605Z,59.28
2022-09-10T16:22:02.135Z,58.93
2022-09-10T16:24:29.604Z,57.88
2022-09-10T16:26:57.352Z,58.05
2022-09-10T16:29:25.053Z,59.13
2022-09-10T16:31:52.329Z,58.89
2022-09-10T16:34:20.921Z,59.46
2022-09-10T16:36:50.208Z,58.03
2022-09-10T16:39:19.340Z,58.77
2022-09-10T16:41:48.563Z,59.17
2022-09-10T16:44:18.056Z,57.92
2022-09-10T16:46:46.324Z,57.78
2022-09-10T16:49:14.801Z,57.50
2022-09-10T16:51:43.549Z,58.43
2022-09-10T16:54:13.359Z,56.75
2022-09-10T16:56:43.053Z,57.27
2022-09-10T16:59:13.538Z,56.55
2022-09-10T17:01:42.799Z,56.46
2022-09-10T17:04:18.546Z,57.10
2022-09-10T17:06:47.556Z,59.07
2022-09-10T17:09:16.408Z,59.75
2022-09-10T17:11:43.921Z,60.65
2022-09-10T17:14:11.557Z,60.96
2022-09-10T17:16:40.352Z,60.47
2022-09-10T17:19:10.397Z,60.56
2022-09-10T17:21:41.453Z,60.54
2022-09-10T17:24:11.333Z,61.82
2022-09-10T17:26:41.772Z,61.48
2022-09-10T17:29:12.225Z,61.43
2022-09-10T17:31:43.008Z,60.75
2022-09-10T17:34:11.039Z,60.57
2022-09-10T17:36:38.805Z,61.60
2022-09-10T17:39:07.186Z,60.58
2022-09-10T17:41:34.701Z,60.91
2022-09-10T17:44:04.163Z,60.87
2022-09-10T17:46:32.425Z,60.73
2022-09-10T17:49:00.000Z,61.94
2022-09-10T17:51:35.377Z,62.48
2022-09-10T17:54:03.371Z,62.52
2022-09-10T17:56:33.234Z,62.36
2022-09-10T17:59:02.493Z,62.08
2022-09-10T18:01:33.891Z,62.51
2022-09-10T18:04:01.509Z,62.83
2022-09-10T18:06:29.416Z,64.48
2022-09-10T18:08:58.600Z,65.53
2022-09-10T18:11:28.064Z,65.76
2022-09-10T18:13:56.973Z,65.47
2022-09-10T18:16:26.466Z,65.30
2022-09-10T18:18:58.045Z,65.85
2022-09-10T18:21:28.222Z,66.12
2022-09-10T18:23:57.392Z,66.54
2022-09-10T18:26:29.311Z,66.33
2022-09-10T18:28:58.935Z,67.73
2022-09-10T18:31:28.123Z,66.06
2022-09-10T18:33:57.653Z,67.29
2022-09-10T18:36:26.949Z,67.55
2022-09-10T18:38:54.549Z,68.08
2022-09-10T18:41:24.366Z,69.02
2022-09-10T18:43:54.128Z,71.21
2022-09-10T18:46:22.130Z,71.90
2022-09-10T18:48:50.965Z,72.15
2022-09-10T18:51:22.127Z,72.05
2022-09-10T18:53:53.197Z,71.33
2022-09-10T18:56:23.157Z,70.65
2022-09-10T18:58:51.418Z,70.25
2022-09-10T19:01:18.998Z,69.80
2022-09-10T19:03:48.258Z,68.56
2022-09-10T19:06:17.574Z,68.77
2022-09-10T19:08:51.267Z,68.80
2022-09-10T19:11:19.408Z,68.79
2022-09-10T19:13:51.771Z,68.96
2022-09-10T19:16:20.204Z,68.08
2022-09-10T19:18:50.852Z,68.55
2022-09-10T19:21:18.508Z,68.66
2022-09-10T19:23:46.619Z,68.06
2022-09-10T19:26:16.649Z,68.55
2022-09-10T19:28:44.924Z,69.74
2022-09-10T19:31:14.609Z,71.12
2022-09-10T19:33:42.189Z,72.16
2022-09-10T19:36:12.350Z,72.70
2022-09-10T19:38:39.804Z,73.82
2022-09-10T19:41:09.853Z,74.11
2022-09-10T19:43:40.156Z,75.52
2022-09-10T19:46:09.854Z,75.50
2022-09-10T19:48:37.545Z,75.94
2022-09-10T19:51:06.616Z,76.08
2022-09-10T19:53:34.669Z,75.61
2022-09-10T19:56:06.316Z,74.64
2022-09-10T19:58:34.161Z,73.58
2022-09-10T20:01:08.883Z,72.50
2022-09-10T20:03:37.086Z,72.40
2022-09-10T20:06:04.904Z,72.05
2022-09-10T20:08:32.923Z,70.79
2022-09-10T20:11:00.461Z,71.59
2022-09-10T20:13:28.210Z,70.10
2022-09-10T20:15:55.477Z,71.05
2022-09-10T20:18:27.776Z,73.31
2022-09-10T20:20:55.576Z,73.04
2022-09-10T20:23:23.060Z,73.07
2022-09-10T20:25:50.281Z,76.33
2022-09-10T20:28:17.721Z,78.18
2022-09-10T20:30:44.963Z,78.30
2022-09-10T20:33:12.284Z,77.78
2022-09-10T20:35:43.023Z,78.05
2022-09-10T20:38:10.213Z,78.31
2022-09-10T20:40:37.445Z,77.47
2022-09-10T20:43:05.002Z,76.75
2022-09-10T20:45:32.221Z,76.31
2022-09-10T20:47:59.437Z,76.24
2022-09-10T20:50:27.031Z,76.75
2022-09-10T20:52:55.590Z,78.69
2022-09-10T20:55:22.803Z,78.37
2022-09-10T20:57:50.225Z,78.82
2022-09-10T21:00:17.836Z,78.81
2022-09-10T21:02:45.124Z,77.53
2022-09-10T21:05:12.688Z,78.12
2022-09-10T21:07:40.006Z,77.09
2022-09-10T21:10:09.842Z,76.78
2022-09-10T21:12:37.488Z,76.22
2022-09-10T21:15:05.326Z,77.09
2022-09-10T21:17:32.658Z,77.10
2022-09-10T21:20:00.181Z,77.53
2022-09-10T21:22:27.752Z,77.23
2022-09-10T21:24:54.936Z,77.46
2022-09-10T21:27:23.857Z,77.83
2022-09-10T21:29:51.119Z,78.22
2022-09-10T21:32:18.301Z,78.20
2022-09-10T21:34:45.761Z,77.67
2022-09-10T21:37:12.997Z,76.98
2022-09-10T21:39:40.322Z,76.52
2022-09-10T21:42:07.954Z,76.40
2022-09-10T21:44:36.616Z,75.97
2022-09-10T21:47:04.090Z,76.00
2022-09-10T21:49:31.554Z,76.40
2022-09-10T21:51:58.848Z,76.54
2022-09-10T21:54:25.986Z,76.59
2022-09-10T21:56:53.653Z,76.59
2022-09-10T21:59:21.107Z,75.92
2022-09-10T22:01:50.027Z,76.79
2022-09-10T22:04:22.559Z,75.93
2022-09-10T22:06:50.710Z,75.31
2022-09-10T22:09:18.040Z,74.64
2022-09-10T22:11:47.037Z,74.83
2022-09-10T22:14:15.782Z,75.09
2022-09-10T22:16:43.710Z,74.86
2022-09-10T22:19:14.801Z,75.20
2022-09-10T22:21:42.120Z,75.96
2022-09-10T22:24:10.487Z,75.42
2022-09-10T22:26:40.902Z,75.19
2022-09-10T22:29:09.092Z,74.76
2022-09-10T22:31:36.833Z,75.25
2022-09-10T22:34:08.697Z,75.07
2022-09-10T22:36:39.169Z,75.21
2022-09-10T22:39:08.653Z,75.07
2022-09-10T22:41:36.793Z,75.20
2022-09-10T22:44:04.784Z,75.74
2022-09-10T22:46:34.007Z,76.17
2022-09-10T22:49:01.766Z,76.50
2022-09-10T22:51:30.848Z,76.70
2022-09-10T22:54:00.487Z,76.32
2022-09-10T22:56:28.769Z,77.12
2022-09-10T22:58:58.070Z,76.77
2022-09-10T23:01:27.852Z,77.24
2022-09-10T23:03:56.676Z,76.07
2022-09-10T23:06:25.303Z,75.71
2022-09-10T23:08:54.729Z,75.73
2022-09-10T23:11:25.418Z,76.14
2022-09-10T23:13:54.347Z,75.98
2022-09-10T23:16:24.666Z,75.96
2022-09-10T23:18:53.605Z,75.96
2022-09-10T23:21:22.445Z,75.61
2022-09-10T23:23:52.472Z,75.50
2022-09-10T23:26:20.415Z,76.29
2022-09-10T23:28:49.442Z,76.38
2022-09-10T23:31:18.765Z,77.31
2022-09-10T23:33:47.654Z,77.24
2022-09-10T23:36:15.209Z,77.73
2022-09-10T23:38:43.516Z,78.25
2022-09-10T23:41:11.375Z,77.75
2022-09-10T23:43:39.022Z,77.61
2022-09-10T23:46:08.767Z,77.39
2022-09-10T23:48:36.420Z,77.45
2022-09-10T23:51:05.006Z,76.83
2022-09-10T23:53:33.665Z,76.83
2022-09-10T23:56:01.245Z,77.00
2022-09-10T23:58:29.158Z,77.84
